Time;durP1;ratioP1;P1;durP2;ratioP2;P2;SDS_P1;SDS_P2;PMS_P1;PMS_P2;Temp;Humidity;BMP_temperature;BMP_pressure;BME280_temperature;BME280_humidity;BME280_pressure;Samples;Min_cycle;Max_cycle;Signal;HPM_P1;HPM_P2
2023/09/10 00:00:39;;;;;;;5.45;4.95;;;23.40;70.30;;;;;;5113544;28;20387;-34
2023/09/10 00:03:05;;;;;;;6.63;4.80;;;23.40;70.50;;;;;;5113165;28;20023;-34
2023/09/10 00:05:31;;;;;;;5.18;4.75;;;23.40;70.50;;;;;;5113173;28;20385;-34
2023/09/10 00:07:57;;;;;;;5.40;4.90;;;23.30;70.60;;;;;;5113130;28;20016;-35
2023/09/10 00:10:23;;;;;;;7.00;5.40;;;23.40;70.70;;;;;;5113160;28;20030;-35
2023/09/10 00:12:48;;;;;;;6.15;5.03;;;23.30;70.70;;;;;;5113072;28;20066;-34
2023/09/10 00:15:14;;;;;;;6.28;4.60;;;23.30;70.90;;;;;;5112920;28;20144;-35
2023/09/10 00:17:39;;;;;;;5.90;5.38;;;23.20;70.90;;;;;;5113221;28;20024;-35
2023/09/10 00:20:07;;;;;;;5.32;4.80;;;23.20;71.00;;;;;;5112920;28;20066;-35
2023/09/10 00:22:32;;;;;;;6.43;5.43;;;23.20;71.10;;;;;;5112955;28;20031;-35
2023/09/10 00:24:58;;;;;;;7.13;5.47;;;23.20;71.10;;;;;;5112883;28;20026;-34
2023/09/10 00:27:24;;;;;;;5.55;5.13;;;23.20;71.20;;;;;;5112621;28;20558;-35
2023/09/10 00:29:49;;;;;;;5.50;4.93;;;23.20;71.20;;;;;;5112823;28;20457;-35
2023/09/10 00:32:15;;;;;;;6.13;5.53;;;23.10;71.30;;;;;;5113100;28;20082;-34
2023/09/10 00:34:40;;;;;;;6.30;5.70;;;23.10;71.30;;;;;;5112597;28;20019;-35
2023/09/10 00:37:07;;;;;;;5.43;4.93;;;23.20;71.40;;;;;;5112751;28;20020;-35
2023/09/10 00:39:32;;;;;;;5.68;5.18;;;23.10;71.40;;;;;;5113031;28;20039;-35
2023/09/10 00:41:58;;;;;;;7.30;5.93;;;23.10;71.50;;;;;;5112582;28;20569;-35
2023/09/10 00:44:24;;;;;;;7.00;5.72;;;23.10;71.50;;;;;;5112428;28;20104;-33
2023/09/10 00:46:53;;;;;;;6.32;5.72;;;23.10;71.60;;;;;;5111910;28;20064;-34
2023/09/10 00:49:19;;;;;;;6.18;5.57;;;23.10;71.70;;;;;;5112700;28;20020;-35
2023/09/10 00:51:47;;;;;;;6.35;5.75;;;23.10;71.80;;;;;;5112893;28;20016;-34
2023/09/10 00:54:15;;;;;;;6.43;5.82;;;23.10;71.80;;;;;;5094876;28;20098;-35
2023/09/10 00:56:41;;;;;;;7.00;6.13;;;23.10;71.80;;;;;;5112680;28;20360;-35
2023/09/10 00:59:08;;;;;;;6.65;5.95;;;23.10;71.80;;;;;;5112626;28;20103;-34
2023/09/10 01:01:35;;;;;;;6.57;5.97;;;23.10;71.90;;;;;;5112578;28;20053;-34
2023/09/10 01:04:01;;;;;;;6.28;5.68;;;23.10;71.90;;;;;;5112541;28;20406;-34
2023/09/10 01:06:27;;;;;;;7.00;6.30;;;23.10;72.00;;;;;;5112786;28;20534;-34
2023/09/10 01:08:52;;;;;;;7.28;6.28;;;23.00;72.00;;;;;;5112695;28;20015;-35
2023/09/10 01:11:37;;;;;;;6.38;5.78;;;23.00;72.10;;;;;;5112708;28;20058;-35
2023/09/10 01:14:15;;;;;;;6.38;5.75;;;23.00;72.30;;;;;;5112420;28;20055;-35
2023/09/10 01:16:57;;;;;;;6.70;6.05;;;23.00;72.30;;;;;;5112430;28;20016;-33
2023/09/10 01:19:50;;;;;;;6.65;6.05;;;23.00;72.40;;;;;;5112520;28;20034;-35
2023/09/10 01:22:36;;;;;;;7.40;5.50;;;22.90;72.40;;;;;;5112444;28;20432;-35
2023/09/10 01:25:02;;;;;;;7.25;6.20;;;22.90;72.50;;;;;;5112513;28;20473;-35
2023/09/10 01:27:28;;;;;;;6.97;6.38;;;22.90;72.50;;;;;;5112112;28;20439;-34
2023/09/10 01:29:54;;;;;;;7.07;6.10;;;22.90;73.30;;;;;;5094440;28;20023;-34
2023/09/10 01:32:31;;;;;;;6.93;6.25;;;22.90;72.80;;;;;;5112241;28;20031;-35
2023/09/10 01:35:04;;;;;;;6.75;6.15;;;22.90;72.80;;;;;;5112276;28;20057;-34
2023/09/10 01:37:33;;;;;;;;;;;22.90;72.90;;;;;;5112475;28;20039;-34
2023/09/10 01:39:59;;;;;;;7.00;6.30;;;22.80;72.70;;;;;;5112066;28;19911;-33
2023/09/10 01:42:25;;;;;;;7.05;6.35;;;22.80;72.90;;;;;;5112575;28;20020;-39
2023/09/10 01:44:52;;;;;;;7.25;6.55;;;22.80;73.00;;;;;;5111892;28;20023;-35
2023/09/10 01:47:17;;;;;;;9.30;7.05;;;22.80;73.00;;;;;;5093847;28;20076;-34
2023/09/10 01:49:43;;;;;;;8.15;6.47;;;22.80;73.10;;;;;;5112102;28;20020;-35
2023/09/10 01:52:09;;;;;;;7.38;6.57;;;22.80;73.20;;;;;;5112051;28;20095;-35
2023/09/10 01:54:34;;;;;;;7.28;6.57;;;22.70;73.20;;;;;;5112026;28;20027;-34
2023/09/10 01:57:00;;;;;;;7.22;6.40;;;22.70;73.20;;;;;;5113158;28;20019;-35
2023/09/10 01:59:26;;;;;;;7.45;6.78;;;22.70;73.30;;;;;;5116069;28;20488;-34
2023/09/10 02:01:51;;;;;;;7.30;6.60;;;22.70;73.30;;;;;;5116012;28;20110;-35
2023/09/10 02:04:17;;;;;;;7.60;6.90;;;22.70;73.40;;;;;;5115502;28;20140;-36
2023/09/10 02:06:42;;;;;;;6.88;6.28;;;22.70;73.40;;;;;;5115866;28;20051;-34
2023/09/10 02:09:08;;;;;;;7.20;6.50;;;22.70;73.40;;;;;;5115749;28;20024;-34
2023/09/10 02:11:34;;;;;;;7.50;6.80;;;22.70;73.40;;;;;;5097595;28;20038;-35
2023/09/10 02:13:59;;;;;;;7.38;6.68;;;22.70;73.40;;;;;;5115482;28;20051;-32
2023/09/10 02:16:25;;;;;;;7.63;6.88;;;22.70;73.40;;;;;;5115433;28;20037;-33
2023/09/10 02:18:50;;;;;;;7.15;6.45;;;22.70;73.40;;;;;;5115538;28;20023;-35
2023/09/10 02:21:16;;;;;;;7.20;6.45;;;22.70;73.40;;;;;;5115759;28;20028;-34
2023/09/10 02:23:42;;;;;;;8.05;6.88;;;22.80;73.40;;;;;;5115526;28;20106;-34
2023/09/10 02:26:07;;;;;;;7.20;6.50;;;22.70;73.40;;;;;;5115223;28;20027;-33
2023/09/10 02:28:33;;;;;;;7.28;6.57;;;22.70;73.40;;;;;;5115258;28;20043;-34
2023/09/10 02:31:08;;;;;;;7.78;6.88;;;22.70;73.50;;;;;;5115522;28;20385;-34
2023/09/10 02:33:34;;;;;;;8.00;6.68;;;22.70;73.50;;;;;;5096763;28;20028;-34
2023/09/10 02:36:01;;;;;;;8.30;6.75;;;22.70;73.50;;;;;;5114829;28;20028;-34
2023/09/10 02:38:29;;;;;;;7.68;6.88;;;22.70;73.60;;;;;;5114890;28;20030;-34
2023/09/10 02:40:55;;;;;;;7.07;6.38;;;22.60;73.50;;;;;;5115091;28;20103;-34
2023/09/10 02:43:21;;;;;;;11.15;6.57;;;22.70;73.60;;;;;;5115004;28;20096;-34
2023/09/10 02:45:48;;;;;;;7.68;6.97;;;22.60;73.60;;;;;;5113989;28;20568;-34
2023/09/10 02:48:13;;;;;;;8.38;6.90;;;22.60;73.70;;;;;;5114475;28;20142;-40
2023/09/10 02:50:39;;;;;;;7.60;6.88;;;22.70;74.40;;;;;;5114660;28;20111;-34
2023/09/10 02:53:05;;;;;;;8.77;7.03;;;22.60;73.70;;;;;;5114646;28;20019;-35
2023/09/10 02:55:30;;;;;;;8.00;7.15;;;22.60;73.70;;;;;;5114431;28;20020;-34
2023/09/10 02:57:56;;;;;;;7.88;6.90;;;22.70;73.80;;;;;;5115016;28;20028;-34
2023/09/10 03:00:25;;;;;;;7.10;6.40;;;22.60;73.80;;;;;;5114411;28;20440;-35
2023/09/10 03:03:00;;;;;;;8.45;7.20;;;22.60;73.70;;;;;;5114683;28;20484;-35
2023/09/10 03:05:25;;;;;;;8.45;7.57;;;22.60;73.80;;;;;;5114350;28;20023;-34
2023/09/10 03:07:53;;;;;;;7.85;7.07;;;22.60;73.80;;;;;;5114197;28;20415;-35
2023/09/10 03:10:18;;;;;;;9.07;7.60;;;22.60;73.70;;;;;;5114016;28;20045;-33
2023/09/10 03:12:44;;;;;;;8.20;7.15;;;22.60;73.80;;;;;;5114432;28;20106;-34
2023/09/10 03:15:10;;;;;;;7.57;6.88;;;22.50;73.70;;;;;;5114449;28;20123;-32
2023/09/10 03:17:36;;;;;;;8.13;7.32;;;22.50;73.80;;;;;;5114394;28;20528;-33
2023/09/10 03:20:02;;;;;;;9.23;7.82;;;22.50;73.80;;;;;;5114047;28;20106;-34
2023/09/10 03:22:28;;;;;;;8.95;7.90;;;22.50;73.90;;;;;;5095778;28;20024;-34
2023/09/10 03:24:53;;;;;;;8.07;7.28;;;22.50;73.90;;;;;;5113895;28;20023;-34
2023/09/10 03:27:19;;;;;;;8.30;7.50;;;22.50;73.90;;;;;;5078907;28;20039;-33
2023/09/10 03:29:45;;;;;;;8.32;7.53;;;22.50;74.00;;;;;;5114390;28;20106;-34
2023/09/10 03:32:11;;;;;;;8.38;7.47;;;22.40;74.00;;;;;;5114222;28;20022;-34
2023/09/10 03:34:36;;;;;;;8.02;7.32;;;22.40;74.10;;;;;;5095965;28;20117;-35
2023/09/10 03:37:06;;;;;;;8.25;7.45;;;22.40;74.10;;;;;;5114272;28;20020;-35
2023/09/10 03:39:31;;;;;;;8.55;7.68;;;22.40;74.20;;;;;;5113791;28;20088;-34
2023/09/10 03:41:57;;;;;;;8.77;7.95;;;22.40;74.30;;;;;;5113978;28;20035;-35
2023/09/10 03:44:23;;;;;;;8.80;8.00;;;22.30;74.30;;;;;;5113534;28;20689;-38
2023/09/10 03:46:48;;;;;;;9.07;8.18;;;22.30;74.40;;;;;;5114074;28;20114;-34
2023/09/10 03:49:14;;;;;;;8.90;8.00;;;22.30;74.50;;;;;;5113679;28;20020;-34
2023/09/10 03:51:43;;;;;;;9.55;8.15;;;22.20;74.50;;;;;;5113403;28;20461;-34
2023/09/10 03:54:11;;;;;;;10.20;9.20;;;22.20;74.50;;;;;;5113372;28;20140;-34
2023/09/10 03:56:37;;;;;;;10.23;8.43;;;22.30;74.60;;;;;;5113268;28;20035;-33
2023/09/10 03:59:03;;;;;;;9.00;8.15;;;22.20;74.60;;;;;;5113702;28;20024;-35
2023/09/10 04:01:29;;;;;;;9.45;8.45;;;22.20;74.60;;;;;;5113608;28;20633;-34
2023/09/10 04:03:55;;;;;;;9.65;8.52;;;22.20;74.60;;;;;;5113577;28;20028;-34
2023/09/10 04:06:20;;;;;;;10.07;9.07;;;22.20;74.70;;;;;;5113370;28;20069;-33
2023/09/10 04:08:46;;;;;;;10.30;9.32;;;22.20;74.70;;;;;;5113253;28;20026;-32
2023/09/10 04:11:11;;;;;;;10.50;9.40;;;22.20;74.70;;;;;;5113585;28;20491;-34
2023/09/10 04:13:37;;;;;;;9.63;8.70;;;22.20;74.70;;;;;;5113277;28;20020;-33
2023/09/10 04:16:02;;;;;;;10.02;9.02;;;22.20;74.70;;;;;;5113420;28;20063;-35
2023/09/10 04:18:28;;;;;;;9.93;8.93;;;22.20;74.70;;;;;;5113092;28;20039;-40
2023/09/10 04:20:54;;;;;;;10.80;9.60;;;22.20;74.70;;;;;;5113125;28;20023;-35
2023/09/10 04:23:19;;;;;;;12.43;9.95;;;22.20;74.70;;;;;;5112892;28;20028;-33
2023/09/10 04:25:45;;;;;;;10.23;9.18;;;22.20;74.80;;;;;;5113087;28;20487;-35
2023/09/10 04:28:10;;;;;;;10.30;9.30;;;22.20;74.90;;;;;;5112796;28;20082;-33
2023/09/10 04:30:36;;;;;;;10.52;9.43;;;22.10;74.80;;;;;;5113144;28;20020;-35
2023/09/10 04:33:02;;;;;;;10.63;9.60;;;22.10;74.90;;;;;;5112949;28;20016;-34
2023/09/10 04:35:28;;;;;;;11.10;9.55;;;22.10;74.90;;;;;;5094627;28;20034;-33
2023/09/10 04:37:54;;;;;;;10.63;9.52;;;22.10;75.00;;;;;;5112969;28;20080;-34
2023/09/10 04:40:19;;;;;;;10.57;9.32;;;22.10;75.00;;;;;;5113103;28;20027;-33
2023/09/10 04:42:45;;;;;;;10.57;9.57;;;22.10;75.10;;;;;;5113253;28;20480;-34
2023/09/10 04:45:11;;;;;;;10.52;9.40;;;22.00;75.10;;;;;;5112570;28;20035;-34
2023/09/10 04:47:36;;;;;;;10.55;9.45;;;22.00;75.10;;;;;;5112899;28;20016;-33
2023/09/10 04:50:03;;;;;;;11.05;9.65;;;22.00;75.10;;;;;;5113049;28;20020;-34
2023/09/10 04:52:28;;;;;;;12.07;10.02;;;22.00;75.20;;;;;;5112648;28;20020;-33
2023/09/10 04:54:54;;;;;;;10.38;9.30;;;22.00;75.20;;;;;;5112629;28;20152;-33
2023/09/10 04:57:19;;;;;;;12.27;10.38;;;22.00;75.20;;;;;;5112605;28;20388;-33
2023/09/10 04:59:45;;;;;;;11.30;9.45;;;22.00;75.20;;;;;;5112919;28;20028;-32
2023/09/10 05:02:10;;;;;;;11.63;9.57;;;22.00;75.20;;;;;;5112686;28;20028;-34
2023/09/10 05:04:36;;;;;;;10.25;9.23;;;22.00;75.20;;;;;;5112437;28;20103;-30
2023/09/10 05:07:02;;;;;;;10.85;9.32;;;22.00;75.20;;;;;;5112355;28;20487;-34
2023/09/10 05:09:27;;;;;;;10.75;9.32;;;22.00;75.20;;;;;;5112257;28;20035;-33
2023/09/10 05:11:56;;;;;;;10.13;9.10;;;22.00;75.20;;;;;;5112253;28;20053;-31
2023/09/10 05:14:22;;;;;;;10.40;9.40;;;22.00;75.20;;;;;;5112465;28;20465;-33
2023/09/10 05:16:47;;;;;;;9.48;8.57;;;22.00;75.20;;;;;;5112282;28;20022;-30
2023/09/10 05:19:13;;;;;;;10.73;9.63;;;22.00;75.20;;;;;;5112344;28;20015;-36
2023/09/10 05:21:39;;;;;;;10.27;9.13;;;22.00;75.20;;;;;;5112279;28;20054;-34
2023/09/10 05:24:05;;;;;;;11.50;9.77;;;22.00;75.20;;;;;;5112153;28;20026;-34
2023/09/10 05:26:31;;;;;;;10.35;9.25;;;22.00;75.20;;;;;;5112063;28;20412;-34
2023/09/10 05:28:57;;;;;;;10.88;9.48;;;22.10;75.20;;;;;;5112104;28;20024;-31
2023/09/10 05:31:22;;;;;;;11.75;9.63;;;22.00;75.10;;;;;;5112430;28;20023;-28
2023/09/10 05:33:48;;;;;;;10.65;9.63;;;22.10;75.10;;;;;;5116015;28;20022;-34
2023/09/10 05:36:13;;;;;;;11.00;9.70;;;22.10;75.10;;;;;;5097694;28;20023;-32
2023/09/10 05:38:39;;;;;;;10.82;9.70;;;22.10;75.10;;;;;;5116205;28;20026;-32
2023/09/10 05:41:04;;;;;;;10.38;9.27;;;22.10;75.10;;;;;;5115960;28;20669;-31
2023/09/10 05:43:30;;;;;;;10.68;9.57;;;22.10;75.10;;;;;;5115851;28;20665;-32
2023/09/10 05:45:57;;;;;;;10.20;9.20;;;22.10;75.10;;;;;;5115851;28;20028;-29
2023/09/10 05:48:23;;;;;;;10.68;9.60;;;22.10;75.00;;;;;;5116080;28;20491;-32
2023/09/10 05:50:49;;;;;;;10.43;9.32;;;22.10;75.00;;;;;;5115617;28;20020;-35
2023/09/10 05:53:14;;;;;;;11.25;9.65;;;22.20;75.00;;;;;;5115903;28;20027;-31
2023/09/10 05:55:41;;;;;;;10.93;9.82;;;22.20;75.00;;;;;;5115550;28;20381;-34
2023/09/10 05:58:08;;;;;;;10.98;9.77;;;22.20;74.90;;;;;;5116027;28;20081;-34
2023/09/10 06:00:34;;;;;;;10.95;9.85;;;22.20;74.90;;;;;;5115679;28;20028;-36
2023/09/10 06:02:59;;;;;;;10.32;9.07;;;22.30;74.90;;;;;;5115367;28;20350;-32
2023/09/10 06:05:25;;;;;;;11.57;10.13;;;22.30;74.90;;;;;;5115698;28;20024;-35
2023/09/10 06:07:51;;;;;;;10.82;9.73;;;22.30;74.90;;;;;;5115539;28;20129;-34
2023/09/10 06:10:16;;;;;;;11.05;9.50;;;22.30;74.90;;;;;;5115663;28;20024;-51
2023/09/10 06:12:43;;;;;;;10.13;9.13;;;22.30;74.80;;;;;;5097327;28;20044;-52
2023/09/10 06:15:08;;;;;;;9.75;8.85;;;22.40;74.80;;;;;;5115602;28;20540;-49
2023/09/10 06:17:35;;;;;;;9.75;8.85;;;22.50;74.60;;;;;;5115619;28;20102;-51
2023/09/10 06:20:02;;;;;;;11.18;9.98;;;22.60;74.50;;;;;;5115404;28;20020;-51
2023/09/10 06:22:28;;;;;;;9.85;8.90;;;22.60;74.30;;;;;;5115598;28;20088;-51
2023/09/10 06:24:53;;;;;;;12.35;9.20;;;22.70;74.20;;;;;;5115248;28;20070;-54
2023/09/10 06:27:19;;;;;;;10.60;9.60;;;22.80;74.10;;;;;;5115371;28;20040;-52
2023/09/10 06:29:45;;;;;;;10.15;9.15;;;22.80;74.00;;;;;;5115618;28;20419;-52
2023/09/10 06:32:11;;;;;;;10.55;9.50;;;22.90;73.90;;;;;;5115341;28;20123;-48
2023/09/10 06:34:37;;;;;;;10.48;9.15;;;23.00;73.90;;;;;;5115200;28;20417;-52
2023/09/10 06:37:03;;;;;;;9.88;8.98;;;23.10;73.80;;;;;;5115240;28;20016;-52
2023/09/10 06:39:29;;;;;;;10.40;9.30;;;23.10;73.80;;;;;;5115264;28;20027;-51
2023/09/10 06:41:54;;;;;;;10.60;9.50;;;23.10;73.70;;;;;;5115199;28;20065;-53
2023/09/10 06:44:20;;;;;;;10.15;9.15;;;23.10;73.60;;;;;;5113867;28;20016;-48
2023/09/10 06:46:46;;;;;;;10.35;9.35;;;23.20;73.60;;;;;;5115118;28;20085;-48
2023/09/10 06:49:12;;;;;;;9.77;8.77;;;23.20;73.60;;;;;;5115259;28;20024;-48
2023/09/10 06:51:37;;;;;;;9.85;8.82;;;23.30;73.50;;;;;;5115378;28;20479;-43
2023/09/10 06:54:03;;;;;;;9.75;8.85;;;23.30;73.40;;;;;;5114928;28;20020;-47
2023/09/10 06:56:31;;;;;;;10.20;9.20;;;23.30;73.40;;;;;;5114908;28;20422;-49
2023/09/10 06:58:57;;;;;;;11.95;9.07;;;23.40;73.40;;;;;;5115271;28;20112;-45
2023/09/10 07:01:22;;;;;;;10.18;9.18;;;23.40;73.30;;;;;;5114669;28;20078;-49
2023/09/10 07:03:52;;;;;;;10.63;9.52;;;23.50;73.20;;;;;;5114575;28;20032;-48
2023/09/10 07:06:17;;;;;;;10.52;9.43;;;23.50;73.20;;;;;;5114644;28;20043;-48
2023/09/10 07:08:43;;;;;;;9.82;8.93;;;23.60;73.20;;;;;;5114641;28;20020;-53
2023/09/10 07:11:09;;;;;;;10.38;9.32;;;23.60;73.20;;;;;;5114675;28;20360;-50
2023/09/10 07:13:36;;;;;;;9.70;8.77;;;23.60;73.80;;;;;;5114582;28;20088;-52
2023/09/10 07:16:02;;;;;;;11.07;9.95;;;23.60;73.10;;;;;;5114615;28;20035;-51
2023/09/10 07:18:32;;;;;;;10.57;9.45;;;23.70;73.10;;;;;;5114559;28;20030;-51
2023/09/10 07:20:59;;;;;;;10.68;9.57;;;23.70;73.00;;;;;;5114405;28;20435;-50
2023/09/10 07:23:25;;;;;;;12.57;9.50;;;23.80;73.00;;;;;;5114344;28;20027;-49
2023/09/10 07:25:51;;;;;;;11.23;10.07;;;23.80;72.90;;;;;;5114308;28;20028;-51
2023/09/10 07:28:16;;;;;;;10.88;9.77;;;23.80;72.90;;;;;;5114255;28;20435;-48
2023/09/10 07:30:42;;;;;;;10.43;9.20;;;23.90;72.90;;;;;;5114167;28;20055;-54
2023/09/10 07:33:08;;;;;;;10.50;9.50;;;23.90;72.80;;;;;;5114275;28;20015;-48
2023/09/10 07:35:33;;;;;;;10.50;9.27;;;24.00;72.80;;;;;;5095944;28;20030;-55
2023/09/10 07:37:59;;;;;;;12.25;10.40;;;24.00;72.70;;;;;;5114275;28;20484;-51
2023/09/10 07:40:25;;;;;;;11.48;10.27;;;24.10;72.70;;;;;;5114157;28;20024;-53
2023/09/10 07:42:51;;;;;;;11.88;10.77;;;24.10;72.70;;;;;;5114217;28;20381;-54
2023/09/10 07:45:17;;;;;;;11.95;10.73;;;24.10;72.60;;;;;;5113776;28;20031;-50
2023/09/10 07:47:43;;;;;;;11.50;10.40;;;24.10;72.60;;;;;;5114103;28;20342;-52
2023/09/10 07:50:08;;;;;;;10.68;9.60;;;24.20;72.60;;;;;;5114132;28;20020;-51
2023/09/10 07:52:34;;;;;;;10.98;9.88;;;24.20;72.60;;;;;;5114046;28;20040;-50
2023/09/10 07:55:00;;;;;;;13.82;10.18;;;24.30;72.70;;;;;;5113724;28;20020;-49
2023/09/10 07:57:25;;;;;;;11.70;10.55;;;24.30;72.60;;;;;;5113644;28;20118;-53
2023/09/10 07:59:51;;;;;;;11.82;10.68;;;24.30;72.60;;;;;;5113699;28;20020;-52
2023/09/10 08:02:17;;;;;;;11.93;10.82;;;24.40;72.60;;;;;;5095397;28;20031;-54
2023/09/10 08:04:43;;;;;;;11.35;10.25;;;24.40;72.60;;;;;;5113521;28;20049;-49
2023/09/10 08:07:10;;;;;;;12.52;11.27;;;24.50;72.60;;;;;;5113604;28;20585;-52
2023/09/10 08:09:37;;;;;;;13.13;11.80;;;24.50;72.60;;;;;;5113683;28;20095;-52
2023/09/10 08:12:03;;;;;;;13.57;11.75;;;24.50;72.60;;;;;;5113882;28;20425;-51
2023/09/10 08:14:29;;;;;;;13.25;11.85;;;24.60;72.60;;;;;;5113362;28;20361;-53
2023/09/10 08:16:55;;;;;;;13.13;11.82;;;24.60;72.60;;;;;;5113696;28;20016;-53
2023/09/10 08:19:21;;;;;;;11.82;10.68;;;24.60;72.50;;;;;;5095315;28;20024;-52
2023/09/10 08:21:46;;;;;;;11.95;10.85;;;24.70;72.50;;;;;;5113631;28;20026;-53
2023/09/10 08:24:12;;;;;;;12.85;11.63;;;24.70;72.50;;;;;;5113152;28;20472;-51
2023/09/10 08:26:37;;;;;;;14.75;12.60;;;24.70;72.50;;;;;;5113172;28;20090;-51
2023/09/10 08:29:03;;;;;;;15.10;13.52;;;24.80;72.50;;;;;;5113106;28;20016;-54
2023/09/10 08:31:29;;;;;;;12.30;11.07;;;24.80;72.60;;;;;;5113162;28;20026;-51
2023/09/10 08:33:55;;;;;;;13.35;11.90;;;24.90;72.60;;;;;;5113148;28;20032;-50
2023/09/10 08:36:21;;;;;;;14.20;12.85;;;24.90;72.50;;;;;;5112976;28;20031;-31
2023/09/10 08:38:46;;;;;;;13.98;12.63;;;25.00;72.50;;;;;;5113428;28;20039;-34
2023/09/10 08:41:40;;;;;;;15.90;14.38;;;25.00;72.40;;;;;;5113001;28;20023;-31
2023/09/10 08:44:09;;;;;;;16.52;14.05;;;25.10;72.40;;;;;;5112578;28;20031;-33
2023/09/10 08:46:36;;;;;;;15.98;14.32;;;25.20;72.50;;;;;;5112535;28;20044;-37
2023/09/10 08:49:02;;;;;;;15.93;14.23;;;25.30;72.40;;;;;;5112693;28;20015;-33
2023/09/10 08:51:28;;;;;;;16.52;14.77;;;25.40;72.30;;;;;;5112935;28;20409;-30
2023/09/10 08:53:57;;;;;;;16.10;14.50;;;25.40;72.20;;;;;;5094207;28;20042;-31
2023/09/10 08:56:23;;;;;;;15.93;14.27;;;25.50;72.20;;;;;;5112507;28;20050;-32
2023/09/10 08:58:50;;;;;;;16.02;14.35;;;25.50;72.20;;;;;;5112454;28;20089;-32
2023/09/10 09:01:16;;;;;;;16.50;14.80;;;25.60;72.30;;;;;;5112785;28;20031;-35
2023/09/10 09:03:42;;;;;;;16.33;14.73;;;25.70;72.20;;;;;;5112487;28;20023;-33
2023/09/10 09:06:08;;;;;;;16.77;15.02;;;25.80;72.20;;;;;;5112438;28;20500;-34
2023/09/10 09:08:36;;;;;;;15.65;14.10;;;25.90;72.10;;;;;;5116843;28;20019;-33
2023/09/10 09:11:06;;;;;;;16.67;15.05;;;26.00;72.10;;;;;;5116752;28;20523;-29
2023/09/10 09:13:38;;;;;;;15.85;14.25;;;26.00;71.80;;;;;;5116615;28;20016;-31
2023/09/10 09:16:06;;;;;;;16.85;15.05;;;26.10;71.60;;;;;;5098227;28;20024;-32
2023/09/10 09:18:35;;;;;;;15.35;13.57;;;26.20;71.50;;;;;;5116398;28;20027;-34
2023/09/10 09:21:23;;;;;;;16.52;13.30;;;26.20;71.40;;;;;;5116532;28;20055;-31
2023/09/10 09:23:58;;;;;;;16.67;14.05;;;26.40;71.30;;;;;;5116237;28;20023;-34
2023/09/10 09:26:26;;;;;;;15.45;13.82;;;26.40;71.00;;;;;;5116235;28;20072;-31
2023/09/10 09:28:55;;;;;;;15.27;13.57;;;26.50;70.90;;;;;;5098098;28;20389;-31
2023/09/10 09:31:24;;;;;;;17.27;14.80;;;26.60;70.80;;;;;;5116246;28;20098;-31
2023/09/10 09:33:50;;;;;;;16.38;14.68;;;26.70;70.70;;;;;;5116491;28;20373;-30
2023/09/10 09:36:16;;;;;;;15.65;14.02;;;26.80;70.60;;;;;;5116601;28;20123;-33
2023/09/10 09:38:44;;;;;;;15.00;13.38;;;26.90;70.50;;;;;;5116362;28;20047;-32
2023/09/10 09:41:09;;;;;;;16.33;13.40;;;26.90;70.30;;;;;;5116141;28;20039;-34
2023/09/10 09:43:35;;;;;;;14.20;12.40;;;27.00;70.00;;;;;;5116372;28;20024;-32
2023/09/10 09:46:02;;;;;;;14.55;12.52;;;27.00;69.70;;;;;;5115840;28;20032;-33
2023/09/10 09:48:28;;;;;;;15.98;12.52;;;27.10;69.50;;;;;;5115819;28;20076;-33
2023/09/10 09:50:57;;;;;;;14.18;12.57;;;27.10;69.30;;;;;;5115864;28;20080;-32
2023/09/10 09:53:26;;;;;;;14.18;12.77;;;27.20;69.20;;;;;;5115612;28;20026;-34
2023/09/10 09:55:56;;;;;;;13.48;12.13;;;27.30;69.10;;;;;;5115894;28;20023;-34
2023/09/10 09:58:21;;;;;;;12.98;11.68;;;27.30;69.00;;;;;;5115729;28;20110;-33
2023/09/10 10:00:47;;;;;;;12.32;10.95;;;27.40;68.90;;;;;;5115779;28;20533;-36
2023/09/10 10:03:12;;;;;;;12.77;10.63;;;27.50;68.80;;;;;;5115580;28;20102;-30
2023/09/10 10:05:38;;;;;;;12.77;11.50;;;27.60;68.60;;;;;;5115590;28;20396;-35
2023/09/10 10:08:04;;;;;;;11.88;10.68;;;27.70;68.10;;;;;;5115555;28;20026;-32
2023/09/10 10:10:30;;;;;;;11.15;10.00;;;27.70;67.90;;;;;;5114090;28;20311;-34
2023/09/10 10:12:56;;;;;;;13.68;9.07;;;27.80;67.70;;;;;;5115427;28;20058;-35
2023/09/10 10:15:23;;;;;;;13.63;8.95;;;27.90;67.30;;;;;;5115293;28;20027;-32
2023/09/10 10:17:50;;;;;;;11.80;8.55;;;27.90;66.90;;;;;;5115185;28;20023;-37
2023/09/10 10:20:16;;;;;;;11.27;9.00;;;28.00;66.30;;;;;;5115346;28;20028;-30
2023/09/10 10:22:43;;;;;;;10.70;8.02;;;28.10;66.00;;;;;;5115158;28;20133;-33
2023/09/10 10:25:09;;;;;;;12.60;8.30;;;28.00;65.60;;;;;;5115180;28;20024;-34
2023/09/10 10:27:35;;;;;;;10.35;8.30;;;28.10;65.00;;;;;;5115071;28;20044;-32
2023/09/10 10:30:03;;;;;;;11.90;8.32;;;28.10;64.60;;;;;;5114975;28;20024;-32
2023/09/10 10:32:37;;;;;;;10.85;7.53;;;28.20;64.40;;;;;;5115391;28;20063;-33
2023/09/10 10:35:05;;;;;;;12.07;8.10;;;28.20;64.30;;;;;;5114910;28;20020;-32
2023/09/10 10:37:52;;;;;;;11.30;8.10;;;28.20;64.10;;;;;;5115218;28;20399;-34
2023/09/10 10:40:27;;;;;;;11.75;8.82;;;28.20;63.80;;;;;;5114944;28;20028;-34
2023/09/10 10:43:15;;;;;;;11.27;8.38;;;28.20;63.60;;;;;;5114923;28;20035;-37
2023/09/10 10:45:44;;;;;;;11.80;7.63;;;28.30;63.40;;;;;;5114477;28;20418;-33
2023/09/10 10:48:16;;;;;;;14.57;8.30;;;28.30;63.50;;;;;;5115007;28;20611;-31
2023/09/10 10:50:44;;;;;;;9.30;7.93;;;28.40;63.50;;;;;;5115072;28;20015;-34
2023/09/10 10:53:19;;;;;;;8.63;7.20;;;28.50;63.30;;;;;;5114574;28;20023;-32
2023/09/10 10:55:47;;;;;;;10.63;8.07;;;28.50;63.20;;;;;;5114689;28;20466;-32
2023/09/10 10:58:13;;;;;;;9.45;7.50;;;28.60;63.20;;;;;;5114805;28;20024;-32
2023/09/10 11:00:39;;;;;;;8.75;7.45;;;28.60;63.10;;;;;;5114481;28;20127;-35
2023/09/10 11:03:15;;;;;;;10.52;7.50;;;28.60;63.00;;;;;;5114416;28;20051;-31
2023/09/10 11:05:54;;;;;;;9.48;7.57;;;28.70;62.90;;;;;;5114333;28;20350;-35
2023/09/10 11:08:30;;;;;;;11.45;7.22;;;28.80;63.00;;;;;;5114721;28;20028;-32
2023/09/10 11:10:57;;;;;;;12.40;7.90;;;28.80;62.80;;;;;;5114557;28;20020;-32
2023/09/10 11:13:23;;;;;;;9.50;7.90;;;28.90;62.70;;;;;;5114067;28;20015;-32
2023/09/10 11:16:03;;;;;;;11.00;7.82;;;28.90;62.40;;;;;;5114212;28;20050;-31
2023/09/10 11:18:38;;;;;;;8.95;6.93;;;29.00;62.30;;;;;;5114006;28;20059;-32
2023/09/10 11:21:44;;;;;;;8.38;6.93;;;29.00;62.20;;;;;;5114463;28;20032;-31
2023/09/10 11:24:15;;;;;;;10.95;7.50;;;29.10;62.30;;;;;;5113618;28;20030;-32
2023/09/10 11:26:41;;;;;;;9.95;7.43;;;29.10;62.00;;;;;;5113674;28;20056;-34
2023/09/10 11:29:08;;;;;;;9.88;7.10;;;29.10;62.00;;;;;;5113346;28;20389;-32
2023/09/10 11:31:33;;;;;;;10.98;7.68;;;29.20;61.90;;;;;;5113772;28;20027;-30
2023/09/10 11:34:27;;;;;;;9.90;7.72;;;29.20;61.70;;;;;;5113926;28;20038;-33
2023/09/10 11:37:02;;;;;;;10.80;6.72;;;29.30;61.80;;;;;;5104185;28;20400;-34
2023/09/10 11:39:29;;;;;;;7.80;6.43;;;29.40;61.90;;;;;;5095525;28;20023;-36
2023/09/10 11:41:57;;;;;;;10.38;7.05;;;29.40;61.60;;;;;;5113799;28;20385;-31
2023/09/10 11:44:23;;;;;;;7.95;6.55;;;29.50;61.40;;;;;;5113584;28;20099;-30
2023/09/10 11:46:52;;;;;;;10.10;6.40;;;29.50;61.20;;;;;;5113043;28;20028;-30
2023/09/10 11:49:19;;;;;;;9.23;6.18;;;29.60;61.10;;;;;;5113195;28;20019;-34
2023/09/10 11:51:47;;;;;;;13.52;6.22;;;29.70;60.90;;;;;;5113318;28;20019;-30
2023/09/10 11:54:16;;;;;;;10.88;7.03;;;29.70;60.60;;;;;;5112741;28;20496;-30
2023/09/10 11:56:49;;;;;;;10.35;6.47;;;29.80;60.40;;;;;;5112786;28;20015;-33
2023/09/10 11:59:16;;;;;;;9.00;6.35;;;29.90;60.40;;;;;;5112935;28;20080;-30
2023/09/10 12:01:41;;;;;;;7.25;5.57;;;29.90;60.60;;;;;;5094471;28;20023;-32
2023/09/10 12:04:07;;;;;;;8.10;5.45;;;30.00;60.30;;;;;;5112820;28;20121;-29
2023/09/10 12:06:33;;;;;;;7.47;5.28;;;30.10;60.00;;;;;;5112693;28;20024;-33
2023/09/10 12:08:58;;;;;;;7.53;5.15;;;30.10;59.80;;;;;;5112818;28;20026;-31
2023/09/10 12:11:26;;;;;;;7.03;4.90;;;30.20;59.50;;;;;;5112674;28;20029;-32
2023/09/10 12:13:52;;;;;;;7.00;4.97;;;30.30;59.60;;;;;;5112502;28;20100;-31
2023/09/10 12:16:18;;;;;;;7.07;5.30;;;30.40;59.50;;;;;;5112715;28;20034;-33
2023/09/10 12:18:44;;;;;;;7.65;4.68;;;30.40;59.10;;;;;;5112878;28;20019;-29
2023/09/10 12:21:14;;;;;;;6.22;4.90;;;30.50;59.00;;;;;;5112887;28;20023;-31
2023/09/10 12:23:40;;;;;;;6.97;4.60;;;30.50;59.00;;;;;;5112344;28;20023;-33
2023/09/10 12:26:07;;;;;;;6.82;4.80;;;30.60;58.90;;;;;;5093973;28;20048;-29
2023/09/10 12:28:33;;;;;;;6.05;4.45;;;30.70;58.70;;;;;;5112240;28;20445;-33
2023/09/10 12:30:59;;;;;;;6.25;4.65;;;30.70;58.50;;;;;;5112343;28;20103;-33
2023/09/10 12:33:25;;;;;;;8.27;4.95;;;30.80;58.40;;;;;;5112175;28;20023;-33
2023/09/10 12:35:52;;;;;;;7.15;4.97;;;30.80;58.10;;;;;;5112269;28;20027;-34
2023/09/10 12:38:18;;;;;;;6.88;5.05;;;30.90;58.00;;;;;;5112330;28;20048;-35
2023/09/10 12:40:48;;;;;;;7.70;5.07;;;30.90;57.90;;;;;;5112607;28;20437;-35